sensor_id;sensor_type;location;lat;lon;timestamp;pressure;altitude;pressure_sealevel;temperature;humidity
20710;BME280;10516;51.518;9.864;2023-02-10T00:01:21;100538.03;;;1.03;74.31
20710;BME280;10516;51.518;9.864;2023-02-10T00:03:48;100539.72;;;0.94;73.82
20710;BME280;10516;51.518;9.864;2023-02-10T00:06:14;100547.19;;;0.71;75.13
20710;BME280;10516;51.518;9.864;2023-02-10T00:08:40;100551.72;;;1.06;74.69
20710;BME280;10516;51.518;9.864;2023-02-10T00:11:10;100565.31;;;0.65;76.32
20710;BME280;10516;51.518;9.864;2023-02-10T00:13:37;100539.44;;;0.97;74.10
20710;BME280;10516;51.518;9.864;2023-02-10T00:16:05;100536.91;;;0.78;74.75
20710;BME280;10516;51.518;9.864;2023-02-10T00:18:31;100561.19;;;0.90;74.26
20710;BME280;10516;51.518;9.864;2023-02-10T00:21:07;100545.00;;;-0.18;78.05
20710;BME280;10516;51.518;9.864;2023-02-10T00:23:33;100549.63;;;0.36;76.58
20710;BME280;10516;51.518;9.864;2023-02-10T00:26:05;100570.09;;;0.79;75.86
20710;BME280;10516;51.518;9.864;2023-02-10T00:28:32;100573.00;;;0.39;76.82
20710;BME280;10516;51.518;9.864;2023-02-10T00:30:57;100573.00;;;0.01;79.49
20710;BME280;10516;51.518;9.864;2023-02-10T00:33:23;100560.16;;;-0.40;81.02
20710;BME280;10516;51.518;9.864;2023-02-10T00:35:48;100578.53;;;-0.02;80.16
20710;BME280;10516;51.518;9.864;2023-02-10T00:38:13;100568.72;;;0.10;79.07
20710;BME280;10516;51.518;9.864;2023-02-10T00:40:39;100587.44;;;0.53;78.12
20710;BME280;10516;51.518;9.864;2023-02-10T00:43:04;100587.09;;;-0.19;79.67
20710;BME280;10516;51.518;9.864;2023-02-10T00:45:29;100589.53;;;0.49;77.29
20710;BME280;10516;51.518;9.864;2023-02-10T00:47:55;100592.88;;;0.42;77.95
20710;BME280;10516;51.518;9.864;2023-02-10T00:50:20;100595.84;;;0.75;77.74
20710;BME280;10516;51.518;9.864;2023-02-10T00:52:45;100591.09;;;0.89;76.61
20710;BME280;10516;51.518;9.864;2023-02-10T00:55:11;100598.00;;;0.24;79.77
20710;BME280;10516;51.518;9.864;2023-02-10T00:57:36;100581.72;;;0.21;79.14
20710;BME280;10516;51.518;9.864;2023-02-10T01:00:03;100594.28;;;0.08;79.06
20710;BME280;10516;51.518;9.864;2023-02-10T01:02:28;100594.28;;;0.08;80.65
20710;BME280;10516;51.518;9.864;2023-02-10T01:04:54;100591.44;;;1.03;77.58
20710;BME280;10516;51.518;9.864;2023-02-10T01:07:19;100590.91;;;1.00;76.97
20710;BME280;10516;51.518;9.864;2023-02-10T01:09:44;100595.88;;;1.03;76.24
20710;BME280;10516;51.518;9.864;2023-02-10T01:12:10;100597.00;;;1.00;76.37
20710;BME280;10516;51.518;9.864;2023-02-10T01:14:35;100585.97;;;1.24;75.22
20710;BME280;10516;51.518;9.864;2023-02-10T01:17:01;100602.81;;;0.94;76.82
20710;BME280;10516;51.518;9.864;2023-02-10T01:19:26;100588.53;;;1.33;75.83
20710;BME280;10516;51.518;9.864;2023-02-10T01:21:51;100597.25;;;1.07;76.36
20710;BME280;10516;51.518;9.864;2023-02-10T01:24:17;100595.59;;;1.06;76.41
20710;BME280;10516;51.518;9.864;2023-02-10T01:26:42;100609.56;;;1.06;75.99
20710;BME280;10516;51.518;9.864;2023-02-10T01:29:08;100598.91;;;1.08;76.96
20710;BME280;10516;51.518;9.864;2023-02-10T01:31:33;100602.06;;;1.38;75.84
20710;BME280;10516;51.518;9.864;2023-02-10T01:33:58;100583.97;;;1.08;76.14
20710;BME280;10516;51.518;9.864;2023-02-10T01:36:25;100589.47;;;1.15;76.24
20710;BME280;10516;51.518;9.864;2023-02-10T01:38:51;100591.47;;;1.30;76.33
20710;BME280;10516;51.518;9.864;2023-02-10T01:41:20;100587.38;;;0.82;77.13
20710;BME280;10516;51.518;9.864;2023-02-10T01:46:30;100589.25;;;0.99;77.12
20710;BME280;10516;51.518;9.864;2023-02-10T01:48:57;100591.78;;;0.91;76.96
20710;BME280;10516;51.518;9.864;2023-02-10T01:51:39;100580.88;;;0.30;79.91
20710;BME280;10516;51.518;9.864;2023-02-10T01:54:09;100591.38;;;0.39;79.70
20710;BME280;10516;51.518;9.864;2023-02-10T01:56:38;100588.59;;;0.41;79.98
20710;BME280;10516;51.518;9.864;2023-02-10T01:59:04;100585.69;;;0.90;78.00
20710;BME280;10516;51.518;9.864;2023-02-10T02:01:30;100584.41;;;0.57;78.66
20710;BME280;10516;51.518;9.864;2023-02-10T02:03:56;100585.50;;;1.01;77.33
20710;BME280;10516;51.518;9.864;2023-02-10T02:06:21;100599.84;;;0.70;78.37
20710;BME280;10516;51.518;9.864;2023-02-10T02:08:48;100605.06;;;0.89;78.10
20710;BME280;10516;51.518;9.864;2023-02-10T02:25:14;100601.72;;;0.97;77.83
20710;BME280;10516;51.518;9.864;2023-02-10T02:31:36;100598.25;;;0.96;77.96
20710;BME280;10516;51.518;9.864;2023-02-10T02:33:42;100580.75;;;0.77;78.59
20710;BME280;10516;51.518;9.864;2023-02-10T02:36:20;100569.13;;;0.80;78.10
20710;BME280;10516;51.518;9.864;2023-02-10T02:38:48;100565.66;;;0.80;78.46
20710;BME280;10516;51.518;9.864;2023-02-10T02:41:22;100589.31;;;0.89;78.36
20710;BME280;10516;51.518;9.864;2023-02-10T02:43:47;100586.28;;;0.74;78.93
20710;BME280;10516;51.518;9.864;2023-02-10T02:46:47;100594.41;;;0.81;78.37
20710;BME280;10516;51.518;9.864;2023-02-10T02:52:14;100605.34;;;0.86;78.49
20710;BME280;10516;51.518;9.864;2023-02-10T02:54:53;100585.06;;;0.79;78.40
20710;BME280;10516;51.518;9.864;2023-02-10T03:00:06;100599.69;;;0.81;78.45
20710;BME280;10516;51.518;9.864;2023-02-10T03:02:35;100613.88;;;0.98;78.52
20710;BME280;10516;51.518;9.864;2023-02-10T03:05:03;100623.97;;;1.02;78.63
20710;BME280;10516;51.518;9.864;2023-02-10T03:07:28;100593.44;;;0.92;78.70
20710;BME280;10516;51.518;9.864;2023-02-10T03:09:53;100616.19;;;1.10;78.24
20710;BME280;10516;51.518;9.864;2023-02-10T03:12:19;100624.34;;;1.07;79.03
20710;BME280;10516;51.518;9.864;2023-02-10T03:14:44;100612.59;;;1.11;78.45
20710;BME280;10516;51.518;9.864;2023-02-10T03:17:10;100618.91;;;1.18;77.99
20710;BME280;10516;51.518;9.864;2023-02-10T03:19:35;100623.22;;;1.19;78.46
20710;BME280;10516;51.518;9.864;2023-02-10T03:22:00;100622.72;;;1.06;78.96
20710;BME280;10516;51.518;9.864;2023-02-10T03:24:26;100611.75;;;1.11;78.33
20710;BME280;10516;51.518;9.864;2023-02-10T03:26:51;100617.13;;;1.19;78.94
20710;BME280;10516;51.518;9.864;2023-02-10T03:29:17;100619.53;;;1.03;79.79
20710;BME280;10516;51.518;9.864;2023-02-10T03:31:42;100639.53;;;1.23;79.40
20710;BME280;10516;51.518;9.864;2023-02-10T03:34:08;100639.06;;;1.00;80.61
20710;BME280;10516;51.518;9.864;2023-02-10T03:36:33;100634.75;;;1.09;79.49
20710;BME280;10516;51.518;9.864;2023-02-10T03:39:00;100618.38;;;1.15;79.24
20710;BME280;10516;51.518;9.864;2023-02-10T03:41:25;100636.75;;;1.24;78.93
20710;BME280;10516;51.518;9.864;2023-02-10T03:43:51;100621.53;;;0.91;80.19
20710;BME280;10516;51.518;9.864;2023-02-10T03:46:16;100639.56;;;1.13;79.71
20710;BME280;10516;51.518;9.864;2023-02-10T03:48:42;100628.50;;;1.10;79.83
20710;BME280;10516;51.518;9.864;2023-02-10T03:51:07;100634.25;;;0.86;81.21
20710;BME280;10516;51.518;9.864;2023-02-10T03:53:33;100625.00;;;0.82;81.71
20710;BME280;10516;51.518;9.864;2023-02-10T03:55:59;100621.53;;;0.91;80.80
20710;BME280;10516;51.518;9.864;2023-02-10T03:58:25;100633.72;;;0.83;81.77
20710;BME280;10516;51.518;9.864;2023-02-10T04:00:51;100631.53;;;1.15;79.69
20710;BME280;10516;51.518;9.864;2023-02-10T04:03:16;100638.50;;;1.06;80.52
20710;BME280;10516;51.518;9.864;2023-02-10T04:05:42;100624.84;;;0.93;80.31
20710;BME280;10516;51.518;9.864;2023-02-10T04:08:08;100625.66;;;1.30;78.92
20710;BME280;10516;51.518;9.864;2023-02-10T04:10:34;100622.53;;;0.61;82.35
20710;BME280;10516;51.518;9.864;2023-02-10T04:12:59;100640.44;;;0.95;80.56
20710;BME280;10516;51.518;9.864;2023-02-10T04:15:25;100639.56;;;1.13;79.60
20710;BME280;10516;51.518;9.864;2023-02-10T04:17:50;100628.81;;;0.41;83.65
20710;BME280;10516;51.518;9.864;2023-02-10T04:20:16;100634.19;;;0.49;82.61
20710;BME280;10516;51.518;9.864;2023-02-10T04:22:41;100624.66;;;0.48;82.92
20710;BME280;10516;51.518;9.864;2023-02-10T04:25:07;100631.41;;;0.51;82.23
20710;BME280;10516;51.518;9.864;2023-02-10T04:27:33;100620.75;;;0.62;81.18
20710;BME280;10516;51.518;9.864;2023-02-10T04:29:59;100646.72;;;1.21;79.48
20710;BME280;10516;51.518;9.864;2023-02-10T04:32:24;100632.78;;;1.11;79.13
20710;BME280;10516;51.518;9.864;2023-02-10T04:34:49;100652.91;;;1.29;78.60
20710;BME280;10516;51.518;9.864;2023-02-10T04:37:15;100641.13;;;1.06;78.53
20710;BME280;10516;51.518;9.864;2023-02-10T04:39:40;100646.72;;;1.21;78.50
20710;BME280;10516;51.518;9.864;2023-02-10T04:42:06;100632.72;;;0.93;78.90
20710;BME280;10516;51.518;9.864;2023-02-10T04:44:31;100655.38;;;1.04;78.76
20710;BME280;10516;51.518;9.864;2023-02-10T04:46:57;100649.84;;;1.07;79.18
20710;BME280;10516;51.518;9.864;2023-02-10T04:49:23;100646.81;;;1.02;78.83
20710;BME280;10516;51.518;9.864;2023-02-10T04:51:49;100644.44;;;0.99;79.12
20710;BME280;10516;51.518;9.864;2023-02-10T04:54:14;100670.31;;;1.03;79.25
20710;BME280;10516;51.518;9.864;2023-02-10T04:56:40;100653.59;;;0.95;79.02
20710;BME280;10516;51.518;9.864;2023-02-10T04:59:05;100642.94;;;0.96;79.70
20710;BME280;10516;51.518;9.864;2023-02-10T05:01:31;100651.81;;;0.95;79.53
20710;BME280;10516;51.518;9.864;2023-02-10T05:03:56;100645.19;;;0.91;79.82
20710;BME280;10516;51.518;9.864;2023-02-10T05:06:22;100642.81;;;0.88;79.99
20710;BME280;10516;51.518;9.864;2023-02-10T05:08:47;100643.16;;;0.66;80.47
20710;BME280;10516;51.518;9.864;2023-02-10T05:11:15;100623.38;;;0.71;80.67
20710;BME280;10516;51.518;9.864;2023-02-10T05:13:41;100630.66;;;0.87;79.49
20710;BME280;10516;51.518;9.864;2023-02-10T05:16:07;100643.44;;;0.53;80.50
20710;BME280;10516;51.518;9.864;2023-02-10T05:18:34;100638.03;;;0.64;80.56
20710;BME280;10516;51.518;9.864;2023-02-10T05:21:00;100630.06;;;0.18;81.51
20710;BME280;10516;51.518;9.864;2023-02-10T05:23:26;100625.66;;;0.19;81.77
20710;BME280;10516;51.518;9.864;2023-02-10T05:25:51;100628.97;;;0.02;83.34
20710;BME280;10516;51.518;9.864;2023-02-10T05:28:17;100625.91;;;-0.13;82.45
20710;BME280;10516;51.518;9.864;2023-02-10T05:30:42;100626.72;;;-0.81;84.21
20710;BME280;10516;51.518;9.864;2023-02-10T05:33:08;100632.50;;;-0.28;82.68
20710;BME280;10516;51.518;9.864;2023-02-10T05:35:33;100631.41;;;-0.26;84.69
20710;BME280;10516;51.518;9.864;2023-02-10T05:38:00;100638.84;;;-0.80;84.64
20710;BME280;10516;51.518;9.864;2023-02-10T05:40:27;100638.50;;;-0.66;84.49
20710;BME280;10516;51.518;9.864;2023-02-10T05:42:53;100623.81;;;-0.29;83.66
20710;BME280;10516;51.518;9.864;2023-02-10T05:45:19;100638.03;;;-0.31;83.07
20710;BME280;10516;51.518;9.864;2023-02-10T05:47:44;100650.94;;;0.20;82.47
20710;BME280;10516;51.518;9.864;2023-02-10T05:50:10;100652.03;;;-0.91;83.66
20710;BME280;10516;51.518;9.864;2023-02-10T05:52:35;100655.72;;;-0.24;82.25
20710;BME280;10516;51.518;9.864;2023-02-10T05:55:01;100650.34;;;-0.13;83.48
20710;BME280;10516;51.518;9.864;2023-02-10T05:57:26;100645.03;;;-1.11;85.78
20710;BME280;10516;51.518;9.864;2023-02-10T05:59:51;100663.75;;;-0.65;83.57
20710;BME280;10516;51.518;9.864;2023-02-10T06:02:17;100667.97;;;-0.83;85.13
20710;BME280;10516;51.518;9.864;2023-02-10T06:04:42;100671.75;;;-0.66;85.41
20710;BME280;10516;51.518;9.864;2023-02-10T06:07:08;100681.75;;;0.08;82.56
20710;BME280;10516;51.518;9.864;2023-02-10T06:09:33;100671.47;;;-0.14;82.90
20710;BME280;10516;51.518;9.864;2023-02-10T06:11:58;100662.09;;;-0.17;82.69
20710;BME280;10516;51.518;9.864;2023-02-10T06:14:24;100662.06;;;-0.36;82.72
20710;BME280;10516;51.518;9.864;2023-02-10T06:16:49;100675.91;;;-0.15;80.98
20710;BME280;10516;51.518;9.864;2023-02-10T06:19:15;100678.97;;;0.10;82.16
20710;BME280;10516;51.518;9.864;2023-02-10T06:21:40;100683.38;;;-0.10;81.39
20710;BME280;10516;51.518;9.864;2023-02-10T06:24:05;100691.06;;;-0.28;82.21
20710;BME280;10516;51.518;9.864;2023-02-10T06:26:31;100693.91;;;0.19;81.71
20710;BME280;10516;51.518;9.864;2023-02-10T06:28:56;100698.47;;;0.36;80.53
20710;BME280;10516;51.518;9.864;2023-02-10T06:31:22;100691.50;;;-0.23;80.94
20710;BME280;10516;51.518;9.864;2023-02-10T06:33:48;100700.25;;;-0.43;82.32
20710;BME280;10516;51.518;9.864;2023-02-10T06:36:13;100696.25;;;0.31;81.26
20710;BME280;10516;51.518;9.864;2023-02-10T06:38:38;100711.19;;;0.21;81.50
20710;BME280;10516;51.518;9.864;2023-02-10T06:41:05;100699.13;;;-0.80;84.21
20710;BME280;10516;51.518;9.864;2023-02-10T06:43:31;100708.81;;;0.18;81.91
20710;BME280;10516;51.518;9.864;2023-02-10T06:45:56;100695.44;;;0.40;80.34
20710;BME280;10516;51.518;9.864;2023-02-10T06:48:22;100713.69;;;0.61;79.76
20710;BME280;10516;51.518;9.864;2023-02-10T06:50:47;100691.56;;;0.44;80.50
20710;BME280;10516;51.518;9.864;2023-02-10T06:53:13;100716.16;;;0.62;79.48
20710;BME280;10516;51.518;9.864;2023-02-10T06:55:38;100716.72;;;-0.31;81.13
20710;BME280;10516;51.518;9.864;2023-02-10T06:58:03;100703.72;;;0.36;80.30
20710;BME280;10516;51.518;9.864;2023-02-10T07:00:29;100711.50;;;-0.22;81.01
20710;BME280;10516;51.518;9.864;2023-02-10T07:02:57;100708.44;;;0.32;79.95
20710;BME280;10516;51.518;9.864;2023-02-10T07:05:22;100721.53;;;0.04;82.29
20710;BME280;10516;51.518;9.864;2023-02-10T07:07:48;100710.66;;;-0.32;82.12
20710;BME280;10516;51.518;9.864;2023-02-10T07:10:16;100718.63;;;0.16;81.41
20710;BME280;10516;51.518;9.864;2023-02-10T07:12:41;100709.28;;;0.33;80.30
20710;BME280;10516;51.518;9.864;2023-02-10T07:15:07;100713.28;;;0.37;80.13
20710;BME280;10516;51.518;9.864;2023-02-10T07:17:32;100715.63;;;0.49;80.21
20710;BME280;10516;51.518;9.864;2023-02-10T07:19:58;100717.69;;;0.55;79.19
20710;BME280;10516;51.518;9.864;2023-02-10T07:22:23;100722.25;;;0.53;79.46
20710;BME280;10516;51.518;9.864;2023-02-10T07:24:49;100727.63;;;0.23;80.09
20710;BME280;10516;51.518;9.864;2023-02-10T07:27:14;100722.47;;;-0.07;80.28
20710;BME280;10516;51.518;9.864;2023-02-10T07:29:40;100736.25;;;-0.15;81.31
20710;BME280;10516;51.518;9.864;2023-02-10T07:32:05;100736.56;;;0.02;80.49
20710;BME280;10516;51.518;9.864;2023-02-10T07:34:30;100741.63;;;-0.56;83.26
20710;BME280;10516;51.518;9.864;2023-02-10T07:36:59;100731.81;;;-0.84;84.92
20710;BME280;10516;51.518;9.864;2023-02-10T07:39:24;100750.03;;;-0.83;84.94
20710;BME280;10516;51.518;9.864;2023-02-10T07:41:50;100747.69;;;-0.25;83.00
20710;BME280;10516;51.518;9.864;2023-02-10T07:44:16;100758.97;;;-0.34;83.98
20710;BME280;10516;51.518;9.864;2023-02-10T07:46:42;100767.06;;;-0.67;84.46
20710;BME280;10516;51.518;9.864;2023-02-10T07:49:07;100757.81;;;-0.02;82.08
20710;BME280;10516;51.518;9.864;2023-02-10T07:51:33;100762.56;;;-0.35;84.37
20710;BME280;10516;51.518;9.864;2023-02-10T07:53:58;100762.63;;;-0.07;83.31
20710;BME280;10516;51.518;9.864;2023-02-10T07:56:24;100755.91;;;0.00;82.79
20710;BME280;10516;51.518;9.864;2023-02-10T07:58:49;100770.72;;;0.21;82.33
20710;BME280;10516;51.518;9.864;2023-02-10T08:01:14;100760.53;;;-0.52;85.87
20710;BME280;10516;51.518;9.864;2023-02-10T08:03:40;100764.19;;;-0.44;85.44
20710;BME280;10516;51.518;9.864;2023-02-10T08:06:05;100765.34;;;0.22;82.57
20710;BME280;10516;51.518;9.864;2023-02-10T08:08:31;100748.66;;;0.33;81.68
20710;BME280;10516;51.518;9.864;2023-02-10T08:10:57;100748.66;;;0.52;81.16
20710;BME280;10516;51.518;9.864;2023-02-10T08:13:23;100741.44;;;0.25;81.31
20710;BME280;10516;51.518;9.864;2023-02-10T08:15:49;100747.50;;;0.07;83.40
20710;BME280;10516;51.518;9.864;2023-02-10T08:18:15;100766.03;;;0.15;83.05
20710;BME280;10516;51.518;9.864;2023-02-10T08:20:40;100768.56;;;0.45;82.01
20710;BME280;10516;51.518;9.864;2023-02-10T08:23:06;100770.38;;;0.35;82.73
20710;BME280;10516;51.518;9.864;2023-02-10T08:25:32;100767.16;;;0.22;82.48
20710;BME280;10516;51.518;9.864;2023-02-10T08:27:58;100776.84;;;0.40;82.40
20710;BME280;10516;51.518;9.864;2023-02-10T08:30:24;100774.53;;;0.56;81.28
20710;BME280;10516;51.518;9.864;2023-02-10T08:32:50;100781.44;;;0.48;81.53
20710;BME280;10516;51.518;9.864;2023-02-10T08:35:15;100768.66;;;0.24;83.21
20710;BME280;10516;51.518;9.864;2023-02-10T08:37:41;100778.53;;;0.51;81.93
20710;BME280;10516;51.518;9.864;2023-02-10T08:40:06;100777.53;;;0.33;83.78
20710;BME280;10516;51.518;9.864;2023-02-10T08:42:33;100786.00;;;0.84;81.13
20710;BME280;10516;51.518;9.864;2023-02-10T08:44:59;100780.91;;;0.83;80.49
20710;BME280;10516;51.518;9.864;2023-02-10T08:47:24;100780.06;;;0.82;80.52
20710;BME280;10516;51.518;9.864;2023-02-10T08:49:50;100776.19;;;0.86;80.81
20710;BME280;10516;51.518;9.864;2023-02-10T08:52:15;100793.06;;;0.84;80.98
20710;BME280;10516;51.518;9.864;2023-02-10T08:54:41;100785.31;;;0.82;81.42
20710;BME280;10516;51.518;9.864;2023-02-10T08:57:07;100784.34;;;1.02;79.95
20710;BME280;10516;51.518;9.864;2023-02-10T08:59:32;100785.72;;;0.97;80.51
20710;BME280;10516;51.518;9.864;2023-02-10T09:01:57;100792.22;;;0.73;82.18
20710;BME280;10516;51.518;9.864;2023-02-10T09:04:23;100806.44;;;1.19;80.35
20710;BME280;10516;51.518;9.864;2023-02-10T09:06:48;100804.81;;;1.18;80.80
20710;BME280;10516;51.518;9.864;2023-02-10T09:09:19;100813.38;;;1.10;80.57
20710;BME280;10516;51.518;9.864;2023-02-10T09:11:47;100799.28;;;1.02;81.29
20710;BME280;10516;51.518;9.864;2023-02-10T09:14:13;100817.50;;;1.32;79.81
20710;BME280;10516;51.518;9.864;2023-02-10T09:16:39;100801.19;;;1.19;80.43
20710;BME280;10516;51.518;9.864;2023-02-10T09:19:04;100816.66;;;1.41;79.73
20710;BME280;10516;51.518;9.864;2023-02-10T09:21:30;100809.91;;;1.29;80.45
20710;BME280;10516;51.518;9.864;2023-02-10T09:23:56;100824.81;;;1.47;79.50
20710;BME280;10516;51.518;9.864;2023-02-10T09:26:21;100822.19;;;1.47;79.29
20710;BME280;10516;51.518;9.864;2023-02-10T09:28:47;100812.56;;;1.19;80.57
20710;BME280;10516;51.518;9.864;2023-02-10T09:31:14;100814.72;;;1.33;79.78
20710;BME280;10516;51.518;9.864;2023-02-10T09:33:41;100819.16;;;1.42;79.72
20710;BME280;10516;51.518;9.864;2023-02-10T09:36:10;100806.81;;;1.52;79.38
20710;BME280;10516;51.518;9.864;2023-02-10T09:38:37;100811.94;;;1.44;79.60
20710;BME280;10516;51.518;9.864;2023-02-10T09:55:18;100811.91;;;1.64;79.09
20710;BME280;10516;51.518;9.864;2023-02-10T09:57:48;100814.56;;;1.44;79.72
20710;BME280;10516;51.518;9.864;2023-02-10T10:00:28;100826.34;;;1.50;79.79
20710;BME280;10516;51.518;9.864;2023-02-10T10:02:55;100819.03;;;1.44;79.72
20710;BME280;10516;51.518;9.864;2023-02-10T10:07:52;100816.34;;;1.53;79.35
20710;BME280;10516;51.518;9.864;2023-02-10T10:10:32;100822.13;;;1.67;79.30
20710;BME280;10516;51.518;9.864;2023-02-10T10:13:00;100818.13;;;1.63;79.01
20710;BME280;10516;51.518;9.864;2023-02-10T10:15:32;100824.31;;;1.81;78.22
20710;BME280;10516;51.518;9.864;2023-02-10T10:18:18;100828.50;;;1.74;78.50
20710;BME280;10516;51.518;9.864;2023-02-10T10:21:00;100824.09;;;1.65;79.21
20710;BME280;10516;51.518;9.864;2023-02-10T10:23:43;100826.81;;;1.73;78.58
20710;BME280;10516;51.518;9.864;2023-02-10T10:29:14;100830.94;;;1.85;79.40
20710;BME280;10516;51.518;9.864;2023-02-10T10:31:46;100822.56;;;1.99;78.63
20710;BME280;10516;51.518;9.864;2023-02-10T10:34:16;100818.50;;;2.14;78.57
20710;BME280;10516;51.518;9.864;2023-02-10T10:36:51;100813.97;;;2.06;78.41
20710;BME280;10516;51.518;9.864;2023-02-10T10:39:40;100816.84;;;2.13;79.28
20710;BME280;10516;51.518;9.864;2023-02-10T10:42:34;100807.66;;;2.17;78.36
20710;BME280;10516;51.518;9.864;2023-02-10T10:45:06;100807.06;;;2.23;78.36
20710;BME280;10516;51.518;9.864;2023-02-10T10:47:46;100803.28;;;2.35;77.89
20710;BME280;10516;51.518;9.864;2023-02-10T10:50:16;100800.84;;;2.24;78.09
20710;BME280;10516;51.518;9.864;2023-02-10T10:52:43;100810.84;;;2.38;78.29
20710;BME280;10516;51.518;9.864;2023-02-10T10:55:16;100797.75;;;2.28;78.85
20710;BME280;10516;51.518;9.864;2023-02-10T10:57:43;100802.94;;;2.38;78.19
20710;BME280;10516;51.518;9.864;2023-02-10T11:00:22;100801.34;;;2.55;78.23
20710;BME280;10516;51.518;9.864;2023-02-10T11:03:02;100800.72;;;2.43;78.09
20710;BME280;10516;51.518;9.864;2023-02-10T11:05:32;100798.88;;;2.53;77.84
20710;BME280;10516;51.518;9.864;2023-02-10T11:07:59;100788.59;;;2.50;77.30
20710;BME280;10516;51.518;9.864;2023-02-10T11:12:57;100784.03;;;2.70;77.01
20710;BME280;10516;51.518;9.864;2023-02-10T11:18:00;100776.06;;;2.79;77.34
20710;BME280;10516;51.518;9.864;2023-02-10T11:23:15;100768.66;;;2.83;77.01
20710;BME280;10516;51.518;9.864;2023-02-10T11:25:41;100761.44;;;2.67;77.21
20710;BME280;10516;51.518;9.864;2023-02-10T11:28:20;100747.13;;;2.70;77.31
20710;BME280;10516;51.518;9.864;2023-02-10T11:30:47;100764.97;;;2.76;77.81
20710;BME280;10516;51.518;9.864;2023-02-10T11:33:25;100761.63;;;2.91;77.71
20710;BME280;10516;51.518;9.864;2023-02-10T11:35:55;100758.72;;;2.77;77.62
20710;BME280;10516;51.518;9.864;2023-02-10T11:38:25;100752.44;;;2.95;77.80
20710;BME280;10516;51.518;9.864;2023-02-10T11:40:59;100757.41;;;2.98;78.11
20710;BME280;10516;51.518;9.864;2023-02-10T11:43:50;100742.81;;;2.86;77.35
20710;BME280;10516;51.518;9.864;2023-02-10T11:46:26;100759.69;;;3.19;77.62
20710;BME280;10516;51.518;9.864;2023-02-10T11:48:59;100750.78;;;3.12;77.31
20710;BME280;10516;51.518;9.864;2023-02-10T11:51:24;100712.88;;;2.95;77.17
20710;BME280;10516;51.518;9.864;2023-02-10T11:53:51;100739.81;;;3.25;77.54
20710;BME280;10516;51.518;9.864;2023-02-10T12:01:55;100738.75;;;3.43;76.45
20710;BME280;10516;51.518;9.864;2023-02-10T12:29:03;100735.69;;;3.98;75.44
20710;BME280;10516;51.518;9.864;2023-02-10T12:31:51;100725.59;;;3.85;75.74
20710;BME280;10516;51.518;9.864;2023-02-10T12:34:27;100725.47;;;3.95;74.75
20710;BME280;10516;51.518;9.864;2023-02-10T12:37:30;100728.75;;;3.89;75.78
20710;BME280;10516;51.518;9.864;2023-02-10T12:43:24;100718.28;;;4.13;74.69
20710;BME280;10516;51.518;9.864;2023-02-10T12:48:38;100704.84;;;3.98;75.33
20710;BME280;10516;51.518;9.864;2023-02-10T12:51:17;100720.28;;;4.35;74.92
20710;BME280;10516;51.518;9.864;2023-02-10T12:54:11;100711.06;;;4.39;74.50
20710;BME280;10516;51.518;9.864;2023-02-10T12:56:46;100720.13;;;4.44;73.23
20710;BME280;10516;51.518;9.864;2023-02-10T13:01:51;100695.69;;;4.50;73.16
20710;BME280;10516;51.518;9.864;2023-02-10T13:04:31;100714.38;;;4.57;73.54
20710;BME280;10516;51.518;9.864;2023-02-10T13:07:01;100710.06;;;4.64;72.71
20710;BME280;10516;51.518;9.864;2023-02-10T13:09:39;100699.81;;;4.45;71.62
20710;BME280;10516;51.518;9.864;2023-02-10T13:14:44;100718.34;;;4.85;72.97
20710;BME280;10516;51.518;9.864;2023-02-10T13:17:10;100702.81;;;4.82;73.16
20710;BME280;10516;51.518;9.864;2023-02-10T13:19:42;100716.84;;;4.83;72.75
20710;BME280;10516;51.518;9.864;2023-02-10T13:27:50;100710.72;;;4.98;73.03
20710;BME280;10516;51.518;9.864;2023-02-10T13:33:39;100682.63;;;4.97;73.11
20710;BME280;10516;51.518;9.864;2023-02-10T13:36:13;100694.34;;;5.19;73.30
20710;BME280;10516;51.518;9.864;2023-02-10T13:38:40;100699.63;;;5.19;72.55
20710;BME280;10516;51.518;9.864;2023-02-10T13:41:30;100694.50;;;5.17;72.04
20710;BME280;10516;51.518;9.864;2023-02-10T13:44:24;100695.50;;;5.00;72.56
20710;BME280;10516;51.518;9.864;2023-02-10T13:47:10;100696.31;;;5.09;72.71
20710;BME280;10516;51.518;9.864;2023-02-10T13:49:37;100698.47;;;5.13;72.39
20710;BME280;10516;51.518;9.864;2023-02-10T13:52:16;100686.56;;;5.09;71.85
20710;BME280;10516;51.518;9.864;2023-02-10T13:54:53;100679.47;;;4.94;72.46
20710;BME280;10516;51.518;9.864;2023-02-10T13:57:24;100677.16;;;4.99;72.00
20710;BME280;10516;51.518;9.864;2023-02-10T13:59:50;100674.19;;;4.94;72.23
20710;BME280;10516;51.518;9.864;2023-02-10T14:02:21;100674.34;;;4.92;72.29
20710;BME280;10516;51.518;9.864;2023-02-10T14:04:52;100677.03;;;4.84;72.25
20710;BME280;10516;51.518;9.864;2023-02-10T14:13:05;100680.16;;;4.88;72.33
20710;BME280;10516;51.518;9.864;2023-02-10T14:15:55;100672.50;;;5.09;72.36
20710;BME280;10516;51.518;9.864;2023-02-10T14:18:32;100677.28;;;5.13;71.83
20710;BME280;10516;51.518;9.864;2023-02-10T14:21:02;100661.59;;;5.12;71.89
20710;BME280;10516;51.518;9.864;2023-02-10T14:23:32;100657.44;;;5.09;71.76
20710;BME280;10516;51.518;9.864;2023-02-10T14:26:02;100660.91;;;5.18;71.46
20710;BME280;10516;51.518;9.864;2023-02-10T14:28:32;100652.38;;;5.00;71.96
20710;BME280;10516;51.518;9.864;2023-02-10T14:31:04;100654.19;;;4.99;72.35
20710;BME280;10516;51.518;9.864;2023-02-10T14:33:33;100651.03;;;4.88;71.56
20710;BME280;10516;51.518;9.864;2023-02-10T14:36:01;100664.94;;;4.82;71.84
20710;BME280;10516;51.518;9.864;2023-02-10T14:38:30;100646.75;;;4.87;71.75
20710;BME280;10516;51.518;9.864;2023-02-10T14:40:58;100628.38;;;4.85;71.99
20710;BME280;10516;51.518;9.864;2023-02-10T14:43:30;100634.53;;;4.78;72.09
20710;BME280;10516;51.518;9.864;2023-02-10T14:45:58;100620.00;;;4.74;72.44
20710;BME280;10516;51.518;9.864;2023-02-10T14:48:24;100627.25;;;4.64;71.80
20710;BME280;10516;51.518;9.864;2023-02-10T14:50:59;100627.47;;;4.54;72.60
20710;BME280;10516;51.518;9.864;2023-02-10T14:53:24;100628.75;;;4.50;72.38
20710;BME280;10516;51.518;9.864;2023-02-10T14:55:58;100631.75;;;4.55;72.87